Time;durP1;ratioP1;P1;durP2;ratioP2;P2;SDS_P1;SDS_P2;PMS_P1;PMS_P2;Temp;Humidity;BMP_temperature;BMP_pressure;BME280_temperature;BME280_humidity;BME280_pressure;Samples;Min_cycle;Max_cycle;Signal;HPM_P1;HPM_P2
2022/04/16 00:17:08;;;;;;;8.75;4.00;;;;;;;;;;6244161;23;20024;-90
2022/04/16 00:19:37;;;;;;;9.18;3.83;;;;;;;;;;6191888;23;20520;-90
2022/04/16 00:22:07;;;;;;;9.75;3.38;;;;;;;;;;6191977;23;20020;-89
2022/04/16 00:24:35;;;;;;;9.77;3.47;;;;;;;;;;6226913;23;20016;-89
2022/04/16 00:27:03;;;;;;;8.35;3.72;;;;;;;;;;6191951;23;20082;-89
2022/04/16 00:29:31;;;;;;;8.48;3.50;;;;;;;;;;6215881;23;20020;-90
2022/04/16 00:31:59;;;;;;;6.55;3.50;;;;;;;;;;6168191;23;20019;-88
2022/04/16 00:34:27;;;;;;;7.60;2.72;;;;;;;;;;6227074;23;20095;-88
2022/04/16 01:28:37;;;;;;;7.72;3.50;;;;;;;;;;6245694;23;20050;-89
2022/04/16 01:31:05;;;;;;;5.55;2.78;;;;;;;;;;6229294;23;20341;-88
2022/04/16 02:56:00;;;;;;;4.22;2.30;;;;;;;;;;6236203;22;20024;-88
2022/04/16 02:58:28;;;;;;;4.50;2.08;;;;;;;;;;6227808;23;20031;-88
2022/04/16 03:00:56;;;;;;;4.75;2.10;;;;;;;;;;6228258;23;20482;-88
2022/04/16 03:03:23;;;;;;;7.10;2.90;;;;;;;;;;6217465;23;20082;-88
2022/04/16 03:05:51;;;;;;;5.82;2.22;;;;;;;;;;6228234;23;20446;-88
2022/04/16 03:08:19;;;;;;;6.65;2.72;;;;;;;;;;6203392;23;20019;-87
2022/04/16 03:10:49;;;;;;;7.93;3.40;;;;;;;;;;6192906;23;20444;-88
2022/04/16 03:13:15;;;;;;;6.63;2.90;;;;;;;;;;6254497;23;20487;-87
2022/04/16 03:30:48;;;;;;;3.92;2.28;;;;;;;;;;6244133;23;20550;-88
2022/04/16 03:50:54;;;;;;;6.50;2.00;;;;;;;;;;6244595;22;20107;-91
2022/04/16 03:53:50;;;;;;;3.55;1.88;;;;;;;;;;6248129;23;20032;-88
2022/04/16 04:01:49;;;;;;;;;;;;;;;;;;6229205;23;20436;-88
2022/04/16 04:04:18;;;;;;;3.92;1.85;;;;;;;;;;6218194;23;19916;-88
2022/04/16 04:06:45;;;;;;;3.72;2.00;;;;;;;;;;6169488;23;20070;-88
2022/04/16 04:09:14;;;;;;;3.78;1.90;;;;;;;;;;6228924;23;20020;-88
2022/04/16 04:11:41;;;;;;;4.35;1.83;;;;;;;;;;6255409;23;20027;-87
2022/04/16 04:14:10;;;;;;;3.63;1.92;;;;;;;;;;6218598;23;20459;-88
2022/04/16 04:16:38;;;;;;;5.22;2.05;;;;;;;;;;6255464;23;20020;-87
2022/04/16 04:19:05;;;;;;;5.30;2.15;;;;;;;;;;6255658;23;20023;-87
2022/04/16 04:21:33;;;;;;;3.28;1.77;;;;;;;;;;6255397;23;20020;-87
2022/04/16 04:24:02;;;;;;;4.18;2.28;;;;;;;;;;6218294;23;20012;-87
2022/04/16 04:26:29;;;;;;;3.33;1.88;;;;;;;;;;6193606;23;20380;-87
2022/04/16 04:28:57;;;;;;;4.00;1.73;;;;;;;;;;6254887;23;20024;-86
2022/04/16 04:31:26;;;;;;;4.85;2.20;;;;;;;;;;6204354;23;20104;-87
2022/04/16 04:33:56;;;;;;;4.70;1.92;;;;;;;;;;6229321;23;20016;-87
2022/04/16 04:36:25;;;;;;;8.30;2.55;;;;;;;;;;6228967;23;20020;-87
2022/04/16 04:38:52;;;;;;;4.57;2.15;;;;;;;;;;6203569;23;20022;-86
2022/04/16 04:41:19;;;;;;;4.43;2.28;;;;;;;;;;6229409;23;20016;-86
2022/04/16 04:43:48;;;;;;;7.82;2.30;;;;;;;;;;6228941;23;20012;-86
2022/04/16 04:46:15;;;;;;;4.88;2.10;;;;;;;;;;6228973;23;20070;-87
2022/04/16 04:48:43;;;;;;;5.68;2.10;;;;;;;;;;6204573;23;20074;-87
2022/04/16 04:51:12;;;;;;;4.07;2.22;;;;;;;;;;6229183;23;20020;-87
2022/04/16 04:53:40;;;;;;;6.40;2.30;;;;;;;;;;6203925;23;20022;-87
2022/04/16 04:56:07;;;;;;;3.78;1.88;;;;;;;;;;6229139;23;20024;-87
2022/04/16 04:58:35;;;;;;;4.20;2.22;;;;;;;;;;6218469;23;20016;-87
2022/04/16 05:01:04;;;;;;;3.92;2.10;;;;;;;;;;6255220;23;20031;-87
2022/04/16 05:03:32;;;;;;;4.68;2.22;;;;;;;;;;6229407;23;20035;-87
2022/04/16 05:05:59;;;;;;;3.97;2.22;;;;;;;;;;6229215;23;20026;-87
2022/04/16 05:08:28;;;;;;;4.90;2.45;;;;;;;;;;6228965;23;20020;-87
2022/04/16 05:10:55;;;;;;;4.53;2.08;;;;;;;;;;6229317;23;20089;-87
2022/04/16 05:13:24;;;;;;;4.97;2.05;;;;;;;;;;6255459;23;20034;-87
2022/04/16 05:15:51;;;;;;;3.97;2.38;;;;;;;;;;6255492;23;20023;-87
2022/04/16 05:18:19;;;;;;;4.13;1.95;;;;;;;;;;6229298;23;20325;-87
2022/04/16 05:20:48;;;;;;;7.60;2.40;;;;;;;;;;6256271;23;20087;-87
2022/04/16 05:23:15;;;;;;;4.13;2.08;;;;;;;;;;6229222;23;20030;-87
2022/04/16 05:25:44;;;;;;;4.05;2.30;;;;;;;;;;6194184;23;20032;-87
2022/04/16 05:28:12;;;;;;;4.30;2.13;;;;;;;;;;6255678;23;20447;-87
2022/04/16 05:30:48;;;;;;;4.35;2.33;;;;;;;;;;6228752;23;20016;-87
2022/04/16 05:36:03;;;;;;;4.00;2.10;;;;;;;;;;6218837;23;20062;-87
2022/04/16 05:38:32;;;;;;;4.22;2.10;;;;;;;;;;6218563;23;20046;-87
2022/04/16 05:41:00;;;;;;;4.32;2.40;;;;;;;;;;6203689;23;20020;-87
2022/04/16 05:43:28;;;;;;;5.47;2.30;;;;;;;;;;6255220;23;20024;-87
2022/04/16 05:45:56;;;;;;;5.68;3.00;;;;;;;;;;6229218;23;20020;-87
2022/04/16 05:48:24;;;;;;;5.63;2.92;;;;;;;;;;6255206;23;20358;-87
2022/04/16 05:50:52;;;;;;;6.80;3.13;;;;;;;;;;6228895;23;20022;-87
2022/04/16 05:53:22;;;;;;;4.68;2.60;;;;;;;;;;6254775;23;20355;-87
2022/04/16 05:55:53;;;;;;;4.30;2.10;;;;;;;;;;6228260;23;20020;-87
2022/04/16 05:58:22;;;;;;;4.38;2.35;;;;;;;;;;6255370;23;20020;-87
2022/04/16 06:00:50;;;;;;;5.93;2.30;;;;;;;;;;6230482;23;20020;-87
2022/04/16 06:03:20;;;;;;;6.38;2.28;;;;;;;;;;6256620;23;20325;-87
2022/04/16 06:05:48;;;;;;;4.75;1.90;;;;;;;;;;6195239;23;20016;-87
2022/04/16 06:08:16;;;;;;;6.30;2.00;;;;;;;;;;6257199;23;20066;-87
2022/04/16 06:10:44;;;;;;;4.85;1.77;;;;;;;;;;6256903;23;20103;-87
2022/04/16 06:13:12;;;;;;;4.97;2.45;;;;;;;;;;6230936;23;20027;-88
2022/04/16 06:15:41;;;;;;;4.93;2.20;;;;;;;;;;6231119;23;20016;-87
2022/04/16 06:18:09;;;;;;;4.40;2.10;;;;;;;;;;6195172;23;20031;-87
2022/04/16 06:20:38;;;;;;;3.10;1.92;;;;;;;;;;6256808;23;20019;-87
2022/04/16 06:23:06;;;;;;;2.90;1.77;;;;;;;;;;6222388;23;20020;-87
2022/04/16 06:25:34;;;;;;;6.90;1.85;;;;;;;;;;6229762;23;20012;-87
2022/04/16 06:28:02;;;;;;;2.97;1.42;;;;;;;;;;6230284;23;20023;-87
2022/04/16 06:30:30;;;;;;;3.42;1.70;;;;;;;;;;6256783;23;20359;-87
2022/04/16 06:32:59;;;;;;;3.00;1.60;;;;;;;;;;6219366;23;20016;-87
2022/04/16 06:35:28;;;;;;;6.20;1.60;;;;;;;;;;6257174;23;20016;-87
2022/04/16 06:37:58;;;;;;;1.58;1.00;;;;;;;;;;6255776;23;20026;-87
2022/04/16 06:40:26;;;;;;;3.42;1.48;;;;;;;;;;6230101;23;20087;-88
2022/04/16 06:42:54;;;;;;;4.53;1.90;;;;;;;;;;6204291;23;20012;-87
2022/04/16 06:45:22;;;;;;;5.20;1.38;;;;;;;;;;6204065;23;20024;-87
2022/04/16 06:47:52;;;;;;;4.55;1.50;;;;;;;;;;6228703;23;20024;-87
2022/04/16 06:50:22;;;;;;;8.73;1.70;;;;;;;;;;6218349;23;20107;-87
2022/04/16 06:52:55;;;;;;;2.88;1.17;;;;;;;;;;6228668;23;20016;-86
2022/04/16 06:55:24;;;;;;;3.63;1.65;;;;;;;;;;6228794;23;20409;-87
2022/04/16 06:57:52;;;;;;;3.85;1.42;;;;;;;;;;6254421;23;20016;-87
2022/04/16 07:00:20;;;;;;;2.58;1.33;;;;;;;;;;6204018;23;20020;-87
2022/04/16 07:02:48;;;;;;;3.58;1.40;;;;;;;;;;6254594;23;20852;-86
2022/04/16 07:05:16;;;;;;;3.63;1.50;;;;;;;;;;6203645;23;20359;-87
2022/04/16 07:07:43;;;;;;;1.60;0.63;;;;;;;;;;6255104;23;20020;-88
2022/04/16 07:10:11;;;;;;;2.60;1.20;;;;;;;;;;6228654;23;20023;-86
2022/04/16 07:12:40;;;;;;;2.90;1.02;;;;;;;;;;6228599;23;20477;-88
2022/04/16 07:15:08;;;;;;;3.15;1.13;;;;;;;;;;6255076;23;20027;-87
2022/04/16 07:17:36;;;;;;;3.08;1.23;;;;;;;;;;6255170;23;20043;-87
2022/04/16 07:20:04;;;;;;;2.00;0.95;;;;;;;;;;6254982;23;20020;-88
2022/04/16 07:22:32;;;;;;;3.92;1.10;;;;;;;;;;6227515;23;20055;-89
2022/04/16 07:24:59;;;;;;;2.38;1.00;;;;;;;;;;6228279;23;20023;-88
2022/04/16 07:27:29;;;;;;;2.50;1.00;;;;;;;;;;6217990;23;20027;-88
2022/04/16 07:29:58;;;;;;;2.30;1.13;;;;;;;;;;6254868;23;20543;-88
2022/04/16 07:32:27;;;;;;;3.20;1.27;;;;;;;;;;6203972;23;20365;-88
2022/04/16 07:34:54;;;;;;;2.45;1.20;;;;;;;;;;6228819;23;20016;-88
2022/04/16 07:37:22;;;;;;;1.27;0.77;;;;;;;;;;6229228;23;20335;-87
2022/04/16 07:39:50;;;;;;;3.45;0.90;;;;;;;;;;6228420;23;20043;-87
2022/04/16 07:42:18;;;;;;;1.25;0.80;;;;;;;;;;6228914;23;20016;-87
2022/04/16 07:44:46;;;;;;;2.17;1.17;;;;;;;;;;6254604;23;20016;-89
2022/04/16 07:47:14;;;;;;;2.05;0.80;;;;;;;;;;6254682;23;20016;-88
2022/04/16 07:49:41;;;;;;;1.90;1.02;;;;;;;;;;6228158;23;20038;-88
2022/04/16 07:52:10;;;;;;;3.22;1.20;;;;;;;;;;6193096;23;20020;-89
2022/04/16 07:54:38;;;;;;;2.83;1.00;;;;;;;;;;6228217;23;20012;-88
2022/04/16 07:57:06;;;;;;;5.10;1.15;;;;;;;;;;6203545;23;20028;-88
2022/04/16 07:59:33;;;;;;;3.03;0.88;;;;;;;;;;6228518;23;20020;-88
2022/04/16 08:02:02;;;;;;;4.75;1.20;;;;;;;;;;6254786;23;20051;-88
2022/04/16 08:04:30;;;;;;;1.83;0.75;;;;;;;;;;6254435;23;20412;-88
2022/04/16 08:06:57;;;;;;;4.55;1.00;;;;;;;;;;6254756;23;20387;-88
2022/04/16 08:09:25;;;;;;;3.25;1.10;;;;;;;;;;6228354;23;20040;-88
2022/04/16 08:11:54;;;;;;;2.80;0.88;;;;;;;;;;6253888;23;20020;-88
2022/04/16 08:14:21;;;;;;;1.90;0.95;;;;;;;;;;6254429;23;20046;-88
2022/04/16 08:16:49;;;;;;;3.35;1.20;;;;;;;;;;6192807;23;20020;-88
2022/04/16 08:19:18;;;;;;;3.05;1.55;;;;;;;;;;6217043;23;20019;-88
2022/04/16 08:21:45;;;;;;;2.28;0.95;;;;;;;;;;6192609;23;20028;-88
2022/04/16 08:24:22;;;;;;;2.47;1.15;;;;;;;;;;6254155;23;20834;-88
2022/04/16 08:26:50;;;;;;;2.92;1.10;;;;;;;;;;6227871;23;20020;-88
2022/04/16 08:29:18;;;;;;;2.08;1.10;;;;;;;;;;6227671;23;20024;-88
2022/04/16 08:31:46;;;;;;;1.50;0.75;;;;;;;;;;6254591;23;20378;-88
2022/04/16 08:34:33;;;;;;;1.58;0.80;;;;;;;;;;6228134;23;20090;-88
2022/04/16 08:37:02;;;;;;;1.60;0.75;;;;;;;;;;6254769;23;20030;-88
2022/04/16 08:39:30;;;;;;;1.75;0.90;;;;;;;;;;6216902;23;20056;-88
2022/04/16 08:41:58;;;;;;;1.33;0.70;;;;;;;;;;6253938;23;20024;-88
2022/04/16 08:44:26;;;;;;;2.28;1.00;;;;;;;;;;6202567;23;20020;-88
2022/04/16 08:46:54;;;;;;;2.42;0.90;;;;;;;;;;6254321;23;20054;-88
2022/04/16 08:49:23;;;;;;;1.45;0.70;;;;;;;;;;6254031;23;20435;-88
2022/04/16 08:51:50;;;;;;;2.40;1.00;;;;;;;;;;6251405;23;20040;-88
2022/04/16 08:54:18;;;;;;;2.92;0.80;;;;;;;;;;6253942;23;20020;-88
2022/04/16 08:56:45;;;;;;;3.33;1.08;;;;;;;;;;6203267;23;20042;-88
2022/04/16 08:59:14;;;;;;;1.17;0.70;;;;;;;;;;6227845;23;20505;-88
2022/04/16 09:01:42;;;;;;;2.33;0.32;;;;;;;;;;6192567;23;20016;-88
2022/04/16 09:04:23;;;;;;;0.93;0.50;;;;;;;;;;6227623;23;20042;-88
2022/04/16 09:06:57;;;;;;;3.78;1.00;;;;;;;;;;6254360;23;20039;-87
2022/04/16 09:09:26;;;;;;;1.13;0.60;;;;;;;;;;6227584;23;20100;-88
2022/04/16 09:11:54;;;;;;;2.47;0.90;;;;;;;;;;6254465;23;20456;-88
2022/04/16 09:14:35;;;;;;;2.53;0.95;;;;;;;;;;6254019;23;20050;-88
2022/04/16 09:17:13;;;;;;;3.17;1.40;;;;;;;;;;6254021;23;20026;-88
2022/04/16 09:19:42;;;;;;;1.77;0.65;;;;;;;;;;6227573;23;20030;-88
2022/04/16 09:22:10;;;;;;;2.00;0.95;;;;;;;;;;6253936;23;20016;-88
2022/04/16 09:24:47;;;;;;;1.20;0.57;;;;;;;;;;6227296;23;20343;-87
2022/04/16 09:27:16;;;;;;;1.52;0.85;;;;;;;;;;6227953;23;20459;-89
2022/04/16 09:29:44;;;;;;;3.42;1.27;;;;;;;;;;6229386;23;20019;-89
2022/04/16 09:32:22;;;;;;;1.38;0.73;;;;;;;;;;6233450;22;19996;-89
2022/04/16 09:34:53;;;;;;;2.22;0.70;;;;;;;;;;6260714;23;20091;-88
2022/04/16 09:37:23;;;;;;;2.13;0.90;;;;;;;;;;6256331;23;20043;-87
2022/04/16 09:39:51;;;;;;;3.85;1.20;;;;;;;;;;6229291;23;20103;-89
2022/04/16 09:42:27;;;;;;;2.92;1.30;;;;;;;;;;6255804;23;20020;-90
2022/04/16 09:44:54;;;;;;;3.72;1.20;;;;;;;;;;6203544;23;20017;-90
2022/04/16 09:47:24;;;;;;;3.00;1.23;;;;;;;;;;6193741;23;20028;-90
2022/04/16 09:49:54;;;;;;;2.47;1.50;;;;;;;;;;6169311;23;20027;-90
2022/04/16 09:52:23;;;;;;;3.70;1.20;;;;;;;;;;6228597;23;20016;-90
2022/04/16 09:54:50;;;;;;;1.75;0.90;;;;;;;;;;6228046;23;20469;-89
2022/04/16 09:57:21;;;;;;;3.72;1.20;;;;;;;;;;6228515;23;20078;-88
2022/04/16 09:59:52;;;;;;;2.53;1.30;;;;;;;;;;6255879;23;20028;-89
2022/04/16 10:02:21;;;;;;;2.13;1.05;;;;;;;;;;6218643;23;20035;-89
2022/04/16 10:04:51;;;;;;;2.13;1.17;;;;;;;;;;6255199;23;20099;-88
2022/04/16 10:07:18;;;;;;;2.17;1.23;;;;;;;;;;6229287;23;20078;-89
2022/04/16 10:09:53;;;;;;;2.50;1.20;;;;;;;;;;6205006;23;20020;-88
2022/04/16 10:15:02;;;;;;;3.13;1.10;;;;;;;;;;6228825;23;20024;-89
2022/04/16 10:17:35;;;;;;;3.55;1.15;;;;;;;;;;6254920;23;20399;-89
2022/04/16 10:20:11;;;;;;;1.77;1.10;;;;;;;;;;6193004;23;20016;-89
2022/04/16 10:22:40;;;;;;;4.88;1.45;;;;;;;;;;6228318;23;20034;-89
2022/04/16 10:25:09;;;;;;;2.80;1.33;;;;;;;;;;6254112;23;20016;-89
2022/04/16 10:27:42;;;;;;;3.00;1.20;;;;;;;;;;6255370;23;20016;-89
2022/04/16 10:30:17;;;;;;;2.00;1.08;;;;;;;;;;6254195;23;20447;-89
2022/04/16 10:32:46;;;;;;;2.20;1.20;;;;;;;;;;6227440;23;20074;-86
2022/04/16 10:35:17;;;;;;;4.05;2.15;;;;;;;;;;6227639;23;20020;-87
2022/04/16 10:37:49;;;;;;;2.60;1.33;;;;;;;;;;6253772;23;20460;-87
2022/04/16 10:40:19;;;;;;;2.13;1.10;;;;;;;;;;6192056;23;20066;-86
2022/04/16 10:42:58;;;;;;;3.55;1.40;;;;;;;;;;6253859;23;20024;-86
2022/04/16 10:45:26;;;;;;;2.33;1.35;;;;;;;;;;6227254;23;20024;-89
2022/04/16 10:47:57;;;;;;;2.95;1.40;;;;;;;;;;6202831;23;20063;-90
2022/04/16 10:50:24;;;;;;;3.25;1.42;;;;;;;;;;6227395;23;20351;-89
2022/04/16 10:52:56;;;;;;;2.67;1.40;;;;;;;;;;6254363;23;20024;-91
2022/04/16 10:55:36;;;;;;;3.42;1.27;;;;;;;;;;6192674;23;20444;-89
2022/04/16 10:58:05;;;;;;;4.05;1.83;;;;;;;;;;6227656;23;20100;-89
2022/04/16 11:00:44;;;;;;;2.17;1.30;;;;;;;;;;6254437;23;20020;-90
2022/04/16 11:03:28;;;;;;;2.85;1.30;;;;;;;;;;6253951;23;20023;-90
2022/04/16 11:06:07;;;;;;;3.90;1.75;;;;;;;;;;6227379;23;20447;-89
2022/04/16 11:08:35;;;;;;;2.97;1.10;;;;;;;;;;6202231;23;20412;-90
2022/04/16 11:11:07;;;;;;;2.58;1.40;;;;;;;;;;6202757;23;20221;-90
2022/04/16 11:13:36;;;;;;;4.65;1.40;;;;;;;;;;6192305;23;20102;-88
2022/04/16 11:16:05;;;;;;;2.35;1.27;;;;;;;;;;6254832;23;20095;-88
2022/04/16 11:18:42;;;;;;;1.83;1.05;;;;;;;;;;6254789;23;20020;-88
2022/04/16 11:21:11;;;;;;;;;;;;;;;;;;6228669;23;20043;-89
2022/04/16 11:23:42;;;;;;;2.75;1.42;;;;;;;;;;6192645;23;19919;-89
2022/04/16 11:34:36;;;;;;;3.75;1.20;;;;;;;;;;6254185;23;20054;-89
2022/04/16 11:37:29;;;;;;;2.05;1.08;;;;;;;;;;6232560;23;20020;-88
2022/04/16 11:40:03;;;;;;;2.20;0.90;;;;;;;;;;6227651;23;20024;-88
2022/04/16 11:42:32;;;;;;;1.92;1.05;;;;;;;;;;6254869;23;20359;-88
2022/04/16 11:45:00;;;;;;;2.05;1.10;;;;;;;;;;6227677;23;20534;-86
2022/04/16 11:47:32;;;;;;;2.13;1.05;;;;;;;;;;6254297;23;20044;-87
2022/04/16 11:50:01;;;;;;;2.72;1.10;;;;;;;;;;6253790;23;20024;-88
2022/04/16 11:52:31;;;;;;;3.70;1.13;;;;;;;;;;6227365;23;20027;-87
2022/04/16 11:55:19;;;;;;;1.80;0.93;;;;;;;;;;6192250;23;20079;-87
2022/04/16 11:57:47;;;;;;;1.83;1.05;;;;;;;;;;6227104;23;20020;-88
2022/04/16 12:00:19;;;;;;;2.95;1.27;;;;;;;;;;6253873;23;20643;-90
2022/04/16 12:02:54;;;;;;;3.45;1.33;;;;;;;;;;6228369;23;20020;-88
2022/04/16 12:05:27;;;;;;;2.95;1.20;;;;;;;;;;6216857;23;20070;-88
2022/04/16 12:07:56;;;;;;;2.63;1.30;;;;;;;;;;6203104;23;20020;-87
2022/04/16 12:10:24;;;;;;;2.63;1.40;;;;;;;;;;6227649;23;20047;-87
2022/04/16 12:12:54;;;;;;;1.67;0.95;;;;;;;;;;6227281;23;20067;-87
2022/04/16 12:15:29;;;;;;;3.72;1.20;;;;;;;;;;6192599;23;20024;-87
2022/04/16 12:18:12;;;;;;;3.63;1.67;;;;;;;;;;6227635;23;20020;-87
2022/04/16 12:20:46;;;;;;;3.28;1.55;;;;;;;;;;6254161;23;20024;-87
2022/04/16 12:23:24;;;;;;;2.85;1.27;;;;;;;;;;6254241;23;20020;-87
2022/04/16 12:26:04;;;;;;;3.72;1.60;;;;;;;;;;6226974;23;20050;-88
2022/04/16 12:28:38;;;;;;;3.88;1.40;;;;;;;;;;6203066;23;20016;-90
2022/04/16 12:31:06;;;;;;;5.60;2.00;;;;;;;;;;6192549;23;20028;-87
2022/04/16 12:33:34;;;;;;;3.10;1.70;;;;;;;;;;6254045;23;20066;-89
2022/04/16 12:36:02;;;;;;;3.78;1.60;;;;;;;;;;6217322;23;20026;-87
2022/04/16 12:38:30;;;;;;;4.18;1.77;;;;;;;;;;6216993;23;20524;-87
2022/04/16 12:41:09;;;;;;;3.55;1.70;;;;;;;;;;6191962;23;20020;-88
2022/04/16 12:43:38;;;;;;;3.97;1.38;;;;;;;;;;6253785;23;20047;-88
2022/04/16 12:46:06;;;;;;;3.97;2.22;;;;;;;;;;6216538;23;20389;-88
2022/04/16 12:48:35;;;;;;;3.50;1.95;;;;;;;;;;6202827;23;20023;-88
2022/04/16 12:51:04;;;;;;;3.90;1.98;;;;;;;;;;6227346;23;20478;-88
2022/04/16 12:53:31;;;;;;;10.50;2.15;;;;;;;;;;6226729;23;20028;-88
2022/04/16 12:56:00;;;;;;;3.80;1.90;;;;;;;;;;6191678;23;20016;-88
2022/04/16 12:58:27;;;;;;;2.80;1.58;;;;;;;;;;6216205;23;20047;-87
2022/04/16 13:00:56;;;;;;;5.47;1.70;;;;;;;;;;6253079;23;20399;-87
2022/04/16 13:03:23;;;;;;;4.13;1.60;;;;;;;;;;6226920;23;20016;-87
2022/04/16 13:05:52;;;;;;;4.63;1.80;;;;;;;;;;6252448;23;20012;-88
2022/04/16 13:08:19;;;;;;;4.25;1.70;;;;;;;;;;6253085;23;20470;-88
2022/04/16 13:10:48;;;;;;;5.22;2.50;;;;;;;;;;6218314;23;20020;-88
2022/04/16 13:13:16;;;;;;;5.60;2.05;;;;;;;;;;6228679;23;20064;-88
2022/04/16 13:15:44;;;;;;;4.47;2.10;;;;;;;;;;6217651;23;20016;-87
2022/04/16 13:18:12;;;;;;;4.10;2.03;;;;;;;;;;6217964;23;20031;-87
2022/04/16 13:20:39;;;;;;;4.10;1.90;;;;;;;;;;6203512;23;20024;-87
2022/04/16 13:23:08;;;;;;;5.20;2.38;;;;;;;;;;6228397;23;20016;-88
2022/04/16 13:25:36;;;;;;;3.78;2.20;;;;;;;;;;6169712;23;20080;-88
2022/04/16 13:28:04;;;;;;;4.30;1.95;;;;;;;;;;6256594;23;20022;-88
2022/04/16 13:30:33;;;;;;;3.67;2.08;;;;;;;;;;6206558;23;20024;-88
2022/04/16 13:33:02;;;;;;;4.03;2.10;;;;;;;;;;6256190;23;20592;-88
2022/04/16 13:35:30;;;;;;;3.80;2.10;;;;;;;;;;6204361;23;20020;-88
2022/04/16 13:37:57;;;;;;;3.25;1.98;;;;;;;;;;6229115;23;20039;-88
2022/04/16 13:43:12;;;;;;;4.03;1.98;;;;;;;;;;6255073;23;20302;-88
2022/04/16 13:45:39;;;;;;;5.10;2.47;;;;;;;;;;6256175;23;20148;-87
2022/04/16 13:48:07;;;;;;;4.03;1.90;;;;;;;;;;6194075;23;20110;-87
2022/04/16 13:50:36;;;;;;;5.25;2.55;;;;;;;;;;6218271;23;20024;-87
2022/04/16 13:53:04;;;;;;;4.25;2.08;;;;;;;;;;6248476;23;20043;-87
2022/04/16 13:55:32;;;;;;;6.57;2.50;;;;;;;;;;6229506;23;20023;-87
2022/04/16 13:58:00;;;;;;;4.63;2.17;;;;;;;;;;6255373;23;20024;-85
2022/04/16 14:00:28;;;;;;;3.72;2.00;;;;;;;;;;6255224;23;20097;-85
2022/04/16 14:02:55;;;;;;;6.43;3.42;;;;;;;;;;6219507;23;20066;-87
2022/04/16 14:08:14;;;;;;;5.97;2.00;;;;;;;;;;6229946;23;20047;-87
2022/04/16 14:10:42;;;;;;;4.93;2.05;;;;;;;;;;6228642;23;20028;-86
2022/04/16 14:13:10;;;;;;;3.78;2.33;;;;;;;;;;6217825;23;20034;-87
2022/04/16 14:15:38;;;;;;;3.58;2.05;;;;;;;;;;6228873;23;20097;-88
2022/04/16 14:18:06;;;;;;;4.70;2.20;;;;;;;;;;6228471;23;20031;-88
2022/04/16 14:20:35;;;;;;;10.65;4.63;;;;;;;;;;6193792;23;20039;-89
2022/04/16 14:23:02;;;;;;;6.25;2.92;;;;;;;;;;6228842;23;20355;-89
2022/04/16 14:25:30;;;;;;;4.43;2.28;;;;;;;;;;6192990;23;20075;-88
2022/04/16 14:28:05;;;;;;;4.05;2.25;;;;;;;;;;6254846;23;20027;-87
2022/04/16 14:30:32;;;;;;;6.05;2.60;;;;;;;;;;6254747;23;20054;-87
2022/04/16 14:33:01;;;;;;;8.63;3.78;;;;;;;;;;6203044;23;20020;-87
2022/04/16 14:35:28;;;;;;;4.85;2.17;;;;;;;;;;6203347;23;20046;-87
2022/04/16 14:37:56;;;;;;;5.30;2.83;;;;;;;;;;6254383;23;20546;-87
2022/04/16 14:40:24;;;;;;;8.25;3.50;;;;;;;;;;6228682;23;20016;-87
2022/04/16 14:42:52;;;;;;;5.75;3.15;;;;;;;;;;6192907;23;20075;-87
2022/04/16 14:45:20;;;;;;;5.47;3.15;;;;;;;;;;6228197;23;20051;-87
2022/04/16 14:47:47;;;;;;;5.10;3.00;;;;;;;;;;6228291;23;20031;-87
2022/04/16 14:50:16;;;;;;;4.50;2.78;;;;;;;;;;6228221;23;20505;-87
2022/04/16 14:52:44;;;;;;;4.65;2.13;;;;;;;;;;6193649;23;20020;-87
2022/04/16 14:55:12;;;;;;;6.63;2.40;;;;;;;;;;6254291;23;20107;-87
2022/04/16 14:57:42;;;;;;;6.03;2.60;;;;;;;;;;6229376;23;20020;-87
2022/04/16 15:00:10;;;;;;;4.40;2.08;;;;;;;;;;6254898;23;20138;-87
2022/04/16 15:02:40;;;;;;;5.28;3.00;;;;;;;;;;6228474;23;20769;-87
2022/04/16 15:05:09;;;;;;;6.95;3.08;;;;;;;;;;6255330;23;20090;-87
2022/04/16 15:07:38;;;;;;;4.43;2.70;;;;;;;;;;6228195;23;20020;-87
2022/04/16 15:10:06;;;;;;;4.88;2.85;;;;;;;;;;6227857;23;20473;-87
2022/04/16 15:12:33;;;;;;;9.07;3.53;;;;;;;;;;6255144;23;20016;-87
2022/04/16 15:15:02;;;;;;;4.93;2.97;;;;;;;;;;6228539;23;20024;-88
2022/04/16 15:17:30;;;;;;;5.40;2.67;;;;;;;;;;6228316;23;20730;-87
2022/04/16 15:19:57;;;;;;;6.72;2.97;;;;;;;;;;6228222;23;20039;-88
2022/04/16 15:22:25;;;;;;;5.97;3.15;;;;;;;;;;6228379;23;20055;-86
2022/04/16 15:24:53;;;;;;;7.25;3.70;;;;;;;;;;6192979;23;20407;-87
2022/04/16 15:27:22;;;;;;;11.40;4.50;;;;;;;;;;6228301;23;20451;-86
2022/04/16 15:29:49;;;;;;;14.50;5.43;;;;;;;;;;6254522;23;20031;-86
2022/04/16 15:32:17;;;;;;;3.78;2.08;;;;;;;;;;6202579;23;20028;-87
2022/04/16 15:34:46;;;;;;;6.50;3.28;;;;;;;;;;6228384;23;20043;-87
2022/04/16 15:37:14;;;;;;;5.95;3.33;;;;;;;;;;6254249;23;20012;-87
2022/04/16 15:39:42;;;;;;;3.63;2.20;;;;;;;;;;6227740;23;20015;-87
2022/04/16 15:42:09;;;;;;;4.47;2.30;;;;;;;;;;6227856;23;20028;-87
2022/04/16 15:44:37;;;;;;;4.38;2.38;;;;;;;;;;6254126;23;20336;-87
2022/04/16 15:47:05;;;;;;;4.20;2.30;;;;;;;;;;6227781;23;20016;-87
2022/04/16 15:49:38;;;;;;;6.47;2.80;;;;;;;;;;6195736;23;20028;-87
2022/04/16 15:52:06;;;;;;;3.70;2.15;;;;;;;;;;6227761;23;20392;-86
2022/04/16 15:54:34;;;;;;;5.15;2.90;;;;;;;;;;6254724;23;20015;-87
2022/04/16 15:57:03;;;;;;;5.72;2.80;;;;;;;;;;6255626;23;20012;-86
2022/04/16 15:59:30;;;;;;;5.65;3.08;;;;;;;;;;6228683;23;20040;-87
2022/04/16 16:02:02;;;;;;;5.60;3.30;;;;;;;;;;6230762;23;20020;-87
2022/04/16 16:07:16;;;;;;;4.30;2.15;;;;;;;;;;6229673;23;20024;-86
2022/04/16 16:09:44;;;;;;;7.38;3.92;;;;;;;;;;6255435;23;20024;-86
2022/04/16 16:12:12;;;;;;;6.25;3.83;;;;;;;;;;6193547;23;20035;-86
2022/04/16 16:14:39;;;;;;;5.82;2.83;;;;;;;;;;6254549;23;20019;-86
2022/04/16 16:17:08;;;;;;;20.98;10.15;;;;;;;;;;6255021;23;20527;-86
2022/04/16 16:19:36;;;;;;;10.30;5.55;;;;;;;;;;6228289;23;20103;-86
2022/04/16 16:22:04;;;;;;;12.15;6.07;;;;;;;;;;6224177;23;20026;-86
2022/04/16 16:24:31;;;;;;;12.30;5.97;;;;;;;;;;6227334;23;20024;-86
2022/04/16 16:27:00;;;;;;;7.35;3.90;;;;;;;;;;6227797;23;20027;-86
2022/04/16 16:29:27;;;;;;;7.78;4.18;;;;;;;;;;6227340;23;20024;-86
2022/04/16 16:31:56;;;;;;;5.40;2.70;;;;;;;;;;6227813;23;20090;-86
2022/04/16 16:34:23;;;;;;;8.32;4.25;;;;;;;;;;6226996;23;20333;-86
2022/04/16 16:36:52;;;;;;;6.45;3.55;;;;;;;;;;6226829;23;20375;-86
2022/04/16 16:39:20;;;;;;;6.10;3.10;;;;;;;;;;6201496;23;20090;-87
2022/04/16 16:41:49;;;;;;;9.75;4.30;;;;;;;;;;6253447;23;20032;-86
2022/04/16 16:44:21;;;;;;;10.35;4.15;;;;;;;;;;6253230;23;20031;-87
2022/04/16 16:46:51;;;;;;;6.65;3.25;;;;;;;;;;6254350;23;20038;-86
2022/04/16 16:49:21;;;;;;;5.45;2.78;;;;;;;;;;6226876;23;20031;-86
2022/04/16 16:51:50;;;;;;;7.38;4.63;;;;;;;;;;6253351;23;20762;-87
2022/04/16 16:54:18;;;;;;;5.68;3.70;;;;;;;;;;6227642;23;20789;-86
2022/04/16 16:56:46;;;;;;;6.47;3.72;;;;;;;;;;6253457;23;20020;-86
2022/04/16 16:59:13;;;;;;;6.93;3.63;;;;;;;;;;6226698;23;20026;-86
2022/04/16 17:01:46;;;;;;;7.68;3.90;;;;;;;;;;6253327;23;20024;-86
2022/04/16 17:09:46;;;;;;;6.13;3.38;;;;;;;;;;6253905;23;20028;-88
2022/04/16 17:12:14;;;;;;;8.43;5.10;;;;;;;;;;6227946;23;20012;-86
2022/04/16 17:20:15;;;;;;;9.38;5.70;;;;;;;;;;6216238;23;20456;-85
2022/04/16 17:22:45;;;;;;;10.82;6.90;;;;;;;;;;6226394;23;20077;-84
2022/04/16 17:25:14;;;;;;;14.88;7.13;;;;;;;;;;6252622;23;20016;-85
2022/04/16 17:27:45;;;;;;;10.82;6.55;;;;;;;;;;6225371;23;20012;-85
2022/04/16 17:30:14;;;;;;;16.52;8.80;;;;;;;;;;6166622;23;20024;-85
2022/04/16 17:32:42;;;;;;;27.33;16.50;;;;;;;;;;6226151;23;20020;-85
2022/04/16 17:35:10;;;;;;;19.77;9.85;;;;;;;;;;6225814;23;20024;-85
2022/04/16 17:37:38;;;;;;;24.63;13.60;;;;;;;;;;6225716;23;20614;-85
2022/04/16 17:40:06;;;;;;;16.90;9.57;;;;;;;;;;6252432;23;20074;-86
2022/04/16 17:42:34;;;;;;;11.23;8.18;;;;;;;;;;6226119;23;20040;-86
2022/04/16 17:45:03;;;;;;;12.00;7.90;;;;;;;;;;6201095;23;20505;-86
2022/04/16 17:47:31;;;;;;;11.20;7.45;;;;;;;;;;6163302;23;20026;-86
2022/04/16 17:49:58;;;;;;;20.83;11.27;;;;;;;;;;6226343;23;20487;-86
2022/04/16 17:52:26;;;;;;;19.33;11.50;;;;;;;;;;6166798;23;20024;-86
2022/04/16 17:54:53;;;;;;;16.20;9.65;;;;;;;;;;6227276;23;20316;-87
2022/04/16 17:57:22;;;;;;;12.30;5.25;;;;;;;;;;6204083;23;20456;-87
2022/04/16 17:59:50;;;;;;;9.88;6.30;;;;;;;;;;6254826;23;20020;-87
2022/04/16 18:02:18;;;;;;;10.18;6.05;;;;;;;;;;6216617;23;20027;-86
2022/04/16 18:04:45;;;;;;;11.25;6.63;;;;;;;;;;6255073;23;20024;-87
2022/04/16 18:07:14;;;;;;;10.93;6.47;;;;;;;;;;6227979;23;20399;-86
2022/04/16 18:09:42;;;;;;;10.73;6.18;;;;;;;;;;6255436;23;20020;-87
2022/04/16 18:12:09;;;;;;;14.38;7.78;;;;;;;;;;6218824;23;20027;-87
2022/04/16 18:14:38;;;;;;;11.98;7.45;;;;;;;;;;6256266;23;20039;-86
2022/04/16 18:17:08;;;;;;;14.93;8.68;;;;;;;;;;6273299;22;20004;-87
2022/04/16 18:19:35;;;;;;;16.50;9.40;;;;;;;;;;6276997;22;20040;-87
2022/04/16 18:22:06;;;;;;;14.52;9.30;;;;;;;;;;6193662;23;20351;-87
2022/04/16 18:24:34;;;;;;;15.57;9.20;;;;;;;;;;6255535;23;20026;-86
2022/04/16 18:27:02;;;;;;;69.60;32.40;;;;;;;;;;6218055;23;20107;-87
2022/04/16 18:29:30;;;;;;;21.27;11.88;;;;;;;;;;6203895;23;20362;-87
2022/04/16 18:31:58;;;;;;;18.80;11.07;;;;;;;;;;6168235;23;20102;-87
2022/04/16 18:34:26;;;;;;;52.83;24.17;;;;;;;;;;6227466;23;20027;-86